Time;durP1;ratioP1;P1;durP2;ratioP2;P2;SDS_P1;SDS_P2;PMS_P1;PMS_P2;Temp;Humidity;BMP_temperature;BMP_pressure;BME280_temperature;BME280_humidity;BME280_pressure;Samples;Min_cycle;Max_cycle;Signal;HPM_P1;HPM_P2
2022/01/22 00:00:39;;;;;;;;;0.33;0.33;;;;;15.86;52.30;103442.78;4973450;28;8793;-69
2022/01/22 00:03:04;;;;;;;;;1.00;1.00;;;;;15.89;52.27;103448.19;4972654;28;8809;-69
2022/01/22 00:05:30;;;;;;;;;1.00;1.00;;;;;15.88;52.39;103445.50;4972780;28;8977;-69
2022/01/22 00:07:55;;;;;;;;;0.33;0.33;;;;;15.88;52.57;103445.50;4973268;28;8790;-70
2022/01/22 00:10:23;;;;;;;;;1.00;1.00;;;;;15.85;52.38;103446.28;4972545;28;8782;-70
2022/01/22 00:15:17;;;;;;;;;0.00;0.00;;;;;15.85;52.40;103441.00;4973066;28;9289;-70
2022/01/22 00:17:43;;;;;;;;;0.00;0.00;;;;;15.88;52.40;103438.50;4972573;28;11542;-70
2022/01/22 00:20:10;;;;;;;;;1.00;1.00;;;;;15.84;52.25;103425.13;4972455;28;9361;-70
2022/01/22 00:22:37;;;;;;;;;1.00;0.00;;;;;15.86;52.48;103428.69;4972303;28;11345;-69
2022/01/22 00:25:07;;;;;;;;;1.00;1.00;;;;;15.87;52.62;103434.06;4973308;28;9265;-70
2022/01/22 00:27:33;;;;;;;;;1.67;1.67;;;;;15.87;52.34;103427.88;4972759;28;10062;-70
2022/01/22 00:29:58;;;;;;;;;0.00;0.00;;;;;15.86;52.17;103432.25;4972134;28;9349;-70
2022/01/22 00:32:24;;;;;;;;;1.00;1.00;;;;;15.87;52.42;103425.25;4972726;28;8794;-70
2022/01/22 00:34:49;;;;;;;;;0.33;0.33;;;;;15.85;52.56;103429.56;4972796;28;8798;-70
2022/01/22 00:37:14;;;;;;;;;0.00;0.00;;;;;15.85;52.46;103427.84;4971693;28;8790;-68
2022/01/22 00:39:40;;;;;;;;;2.67;1.00;;;;;15.86;52.29;103424.34;4972639;28;8798;-70
2022/01/22 00:42:11;;;;;;;;;1.00;0.00;;;;;15.85;52.48;103419.94;4972438;28;8790;-70
2022/01/22 00:44:36;;;;;;;;;0.00;0.00;;;;;15.85;52.36;103417.31;4971836;28;8786;-70
2022/01/22 00:47:03;;;;;;;;;0.00;0.00;;;;;15.85;52.46;103414.66;4972615;28;9260;-69
2022/01/22 00:49:29;;;;;;;;;1.00;1.00;;;;;15.88;52.55;103420.06;4972761;28;8933;-69
2022/01/22 00:51:55;;;;;;;;;0.00;0.00;;;;;15.87;52.54;103420.88;4972038;28;9337;-69
2022/01/22 00:54:20;;;;;;;;;1.00;1.00;;;;;15.84;52.22;103422.50;4972279;28;9200;-69
2022/01/22 00:56:46;;;;;;;;;0.00;0.00;;;;;15.86;52.30;103426.06;4972768;28;9641;-70
2022/01/22 00:59:11;;;;;;;;;3.00;3.00;;;;;15.85;52.35;103433.09;4971495;28;8777;-69
2022/01/22 01:01:36;;;;;;;;;0.00;0.00;;;;;15.85;52.28;103425.19;4972383;28;8790;-69
2022/01/22 01:04:03;;;;;;;;;1.00;1.00;;;;;15.84;52.60;103428.66;4972429;28;8782;-70
2022/01/22 01:06:29;;;;;;;;;1.00;0.67;;;;;15.84;52.47;103422.50;4972042;28;8770;-69
2022/01/22 01:08:56;;;;;;;;;0.67;0.67;;;;;15.87;52.15;103418.25;4972512;28;9207;-70
2022/01/22 01:11:24;;;;;;;;;1.00;1.00;;;;;15.87;52.37;103412.06;4972042;28;9267;-70
2022/01/22 01:13:55;;;;;;;;;0.00;0.00;;;;;15.84;52.46;103411.94;4971387;28;9424;-69
2022/01/22 01:16:42;;;;;;;;;0.67;0.67;;;;;15.86;52.34;103405.00;4972097;28;9297;-69
2022/01/22 01:33:03;;;;;;;;;1.00;1.00;;;;;15.84;52.11;103412.84;4976048;28;9153;-70
2022/01/22 01:35:30;;;;;;;;;1.00;1.00;;;;;15.82;52.52;103411.88;4975956;28;9221;-70
2022/01/22 01:37:58;;;;;;;;;0.00;0.00;;;;;15.85;52.25;103413.75;4975874;28;9378;-69
2022/01/22 01:40:25;;;;;;;;;1.33;1.33;;;;;15.82;52.34;103408.38;4975270;28;9400;-70
2022/01/22 01:43:04;;;;;;;;;0.00;0.00;;;;;15.82;52.34;103414.50;4976354;28;9244;-69
2022/01/22 01:45:30;;;;;;;;;2.00;0.67;;;;;15.84;52.37;103414.59;4976196;28;9841;-69
2022/01/22 01:47:59;;;;;;;;;1.00;1.00;;;;;15.83;52.53;103415.41;4975171;28;9192;-69
2022/01/22 01:50:25;;;;;;;;;1.00;1.00;;;;;15.84;52.35;103411.94;4975959;28;8805;-69
2022/01/22 01:53:09;;;;;;;;;1.00;1.00;;;;;15.82;52.36;103409.25;4975655;28;9179;-68
2022/01/22 01:55:50;;;;;;;;;1.00;1.00;;;;;15.85;52.31;103414.66;4975008;28;9183;-69
2022/01/22 01:58:17;;;;;;;;;1.33;0.00;;;;;15.86;52.07;103405.91;4975586;28;9174;-70
2022/01/22 02:00:42;;;;;;;;;0.67;0.67;;;;;15.85;52.12;103411.13;4975736;28;9358;-70
2022/01/22 02:03:09;;;;;;;;;0.00;0.00;;;;;15.82;52.41;103408.38;4974565;28;9194;-70
2022/01/22 02:05:36;;;;;;;;;1.00;1.00;;;;;15.85;52.46;103419.03;4975721;28;8809;-70
2022/01/22 02:08:02;;;;;;;;;1.67;0.67;;;;;15.81;52.23;103420.63;4975531;28;9327;-69
2022/01/22 02:10:32;;;;;;;;;1.00;1.00;;;;;15.83;52.36;103418.06;4974563;28;9198;-69
2022/01/22 02:13:41;;;;;;;;;1.33;0.67;;;;;15.81;52.41;103418.00;4975684;28;9169;-69
2022/01/22 02:23:58;;;;;;;;;1.33;1.33;;;;;15.82;52.24;103416.28;4974574;28;10130;-69
2022/01/22 02:26:24;;;;;;;;;1.00;1.00;;;;;15.83;52.40;103418.06;4975110;28;9397;-69
2022/01/22 02:28:51;;;;;;;;;0.00;0.00;;;;;15.80;52.33;103418.84;4974689;28;9332;-70
2022/01/22 02:36:31;;;;;;;;;1.00;1.00;;;;;15.83;52.22;103415.41;4973942;28;9361;-69
2022/01/22 02:39:14;;;;;;;;;0.00;0.00;;;;;15.82;52.39;103424.19;4975287;28;9355;-69
2022/01/22 02:41:46;;;;;;;;;2.00;0.67;;;;;15.84;52.22;103427.75;4974533;28;9212;-69
2022/01/22 02:44:15;;;;;;;;;1.00;0.00;;;;;15.80;52.46;103429.38;4973763;28;9333;-69
2022/01/22 02:46:42;;;;;;;;;1.00;1.00;;;;;15.82;52.63;103435.59;4975216;28;9157;-68
2022/01/22 02:49:08;;;;;;;;;0.00;0.00;;;;;15.82;52.34;103434.72;4974381;28;9154;-70
2022/01/22 02:51:33;;;;;;;;;0.00;0.00;;;;;15.82;52.38;103427.69;4974237;28;9208;-69
2022/01/22 02:54:00;;;;;;;;;1.00;1.00;;;;;15.82;52.60;103427.69;4974571;28;8810;-69
2022/01/22 02:56:25;;;;;;;;;0.00;0.00;;;;;15.84;52.55;103419.84;4974428;28;8778;-69
2022/01/22 02:58:53;;;;;;;;;0.00;0.00;;;;;15.81;52.58;103422.38;4973694;28;9278;-69
2022/01/22 03:01:18;;;;;;;;;1.00;1.00;;;;;15.82;52.60;103418.91;4974437;28;8813;-70
2022/01/22 03:03:44;;;;;;;;;0.00;0.00;;;;;15.85;52.33;103417.31;4973859;28;9295;-70
2022/01/22 03:06:11;;;;;;;;;0.00;0.00;;;;;15.82;52.55;103422.41;4973750;28;8790;-69
2022/01/22 03:08:39;;;;;;;;;1.00;1.00;;;;;15.82;52.55;103425.03;4974483;28;8869;-70
2022/01/22 03:11:16;;;;;;;;;0.33;0.33;;;;;15.83;52.52;103420.69;4974044;28;9182;-69
2022/01/22 03:16:27;;;;;;;;;1.00;0.00;;;;;15.80;52.53;103416.19;4973975;28;9695;-69
2022/01/22 03:19:09;;;;;;;;;1.00;1.00;;;;;15.83;52.61;103418.94;4973767;28;9124;-68
2022/01/22 03:21:41;;;;;;;;;0.00;0.00;;;;;15.86;52.67;103426.06;4974341;28;9256;-68
2022/01/22 03:29:40;;;;;;;;;0.00;0.00;;;;;15.83;52.60;103420.69;4973687;28;9208;-68
2022/01/22 03:32:07;;;;;;;;;0.00;0.00;;;;;15.82;52.60;103419.78;4973755;28;9111;-67
2022/01/22 03:34:40;;;;;;;;;1.33;1.33;;;;;15.79;52.64;103424.94;4973013;28;9038;-68
2022/01/22 03:37:06;;;;;;;;;1.00;1.00;;;;;15.83;52.27;103425.94;4973635;28;9113;-69
2022/01/22 03:39:31;;;;;;;;;0.67;0.67;;;;;15.82;52.72;103426.81;4973472;28;9195;-71
2022/01/22 03:41:57;;;;;;;;;0.00;0.00;;;;;15.81;52.70;103420.63;4974047;28;9692;-70
2022/01/22 03:44:22;;;;;;;;;1.00;1.00;;;;;15.84;52.31;103422.50;4973332;28;9526;-70
2022/01/22 03:46:47;;;;;;;;;0.00;0.00;;;;;15.83;52.71;103429.50;4973020;28;8771;-70
2022/01/22 03:49:16;;;;;;;;;1.67;0.67;;;;;15.84;52.46;103420.75;4973343;28;8884;-69
2022/01/22 03:51:41;;;;;;;;;0.00;0.00;;;;;15.84;52.65;103433.03;4973745;28;8758;-70
2022/01/22 03:54:07;;;;;;;;;0.00;0.00;;;;;15.83;52.80;103433.84;4971681;28;9227;-69
2022/01/22 03:56:32;;;;;;;;;0.00;0.00;;;;;15.83;52.59;103437.38;4973756;28;8782;-69
2022/01/22 03:58:57;;;;;;;;;0.00;0.00;;;;;15.87;52.64;103435.78;4973350;28;8782;-69
2022/01/22 04:04:03;;;;;;;;;0.00;0.00;;;;;15.85;52.46;103435.75;4973589;28;8828;-68
2022/01/22 04:09:09;;;;;;;;;0.00;0.00;;;;;15.79;52.99;103424.03;4972641;28;9239;-70
2022/01/22 04:11:39;;;;;;;;;0.00;0.00;;;;;15.82;52.92;103426.81;4973025;28;9195;-67
2022/01/22 04:14:07;;;;;;;;;0.00;0.00;;;;;15.82;52.63;103432.09;4972927;28;9386;-69
2022/01/22 04:16:35;;;;;;;;;0.00;0.00;;;;;15.84;52.63;103433.03;4972786;28;9094;-69
2022/01/22 04:27:15;;;;;;;;;1.00;1.00;;;;;15.81;52.64;103438.19;4972522;28;9074;-69
2022/01/22 04:29:40;;;;;;;;;0.00;0.00;;;;;15.80;52.50;103437.28;4971829;28;9214;-69
2022/01/22 04:32:07;;;;;;;;;0.33;0.33;;;;;15.81;52.58;103435.53;4972586;28;9165;-69
2022/01/22 04:34:33;;;;;;;;;0.00;0.00;;;;;15.81;53.00;103440.81;4972568;28;8842;-69
2022/01/22 04:36:59;;;;;;;;;1.00;0.00;;;;;15.81;52.67;103440.81;4972324;28;9103;-69
2022/01/22 04:39:26;;;;;;;;;0.00;0.00;;;;;15.83;52.88;103436.50;4972711;28;8856;-69
2022/01/22 04:41:54;;;;;;;;;1.00;0.00;;;;;15.85;52.62;103437.47;4972900;28;9022;-68
2022/01/22 04:44:29;;;;;;;;;0.00;0.00;;;;;15.84;52.66;103436.56;4972062;28;9165;-70
2022/01/22 04:47:13;;;;;;;;;2.00;1.00;;;;;15.85;52.73;103434.84;4972740;28;9063;-69
2022/01/22 04:55:00;;;;;;;;;1.00;0.00;;;;;15.83;52.69;103429.50;4972473;28;9972;-69
2022/01/22 04:57:27;;;;;;;;;0.00;0.00;;;;;15.82;52.72;103429.44;4971601;28;9224;-69
2022/01/22 04:59:52;;;;;;;;;0.00;0.00;;;;;15.82;52.73;103424.19;4972801;28;9284;-69
2022/01/22 05:02:18;;;;;;;;;0.00;0.00;;;;;15.81;52.66;103423.28;4972036;28;9266;-69
2022/01/22 05:04:43;;;;;;;;;0.00;0.00;;;;;15.82;52.79;103426.81;4971806;28;8873;-70
2022/01/22 05:07:11;;;;;;;;;1.00;1.00;;;;;15.81;52.89;103422.38;4972064;28;8778;-69
2022/01/22 05:09:36;;;;;;;;;0.00;0.00;;;;;15.80;52.74;103428.47;4972453;28;8789;-69
2022/01/22 05:12:04;;;;;;;;;0.00;0.00;;;;;15.80;52.97;103423.19;4971882;28;9185;-70
2022/01/22 05:14:29;;;;;;;;;0.00;0.00;;;;;15.83;52.94;103429.50;4972401;28;8802;-69
2022/01/22 05:16:56;;;;;;;;;0.00;0.00;;;;;15.81;52.94;103422.38;4972202;28;10113;-69
2022/01/22 05:19:32;;;;;;;;;1.00;0.00;;;;;15.80;52.77;103424.09;4971551;28;8789;-70
2022/01/22 05:22:04;;;;;;;;;0.33;0.33;;;;;15.83;52.86;103428.59;4972405;28;9980;-69
2022/01/22 05:24:32;;;;;;;;;0.00;0.00;;;;;15.81;52.73;103420.63;4972290;28;9184;-69
2022/01/22 05:29:59;;;;;;;;;0.00;0.00;;;;;15.81;52.76;103417.09;4971939;28;9948;-70
2022/01/22 05:32:34;;;;;;;;;0.67;0.67;;;;;15.85;52.72;103422.56;4970836;28;9184;-69
2022/01/22 05:37:44;;;;;;;;;0.00;0.00;;;;;15.81;52.85;103420.63;4972028;28;9184;-69
2022/01/22 05:40:09;;;;;;;;;1.00;1.00;;;;;15.83;52.98;103420.69;4971631;28;9107;-69
2022/01/22 05:42:36;;;;;;;;;0.67;0.00;;;;;15.80;52.91;103416.19;4972179;28;8789;-70
2022/01/22 05:45:03;;;;;;;;;0.00;0.00;;;;;15.82;52.80;103421.53;4972347;28;8778;-69
2022/01/22 05:47:29;;;;;;;;;0.00;0.00;;;;;15.82;52.99;103424.19;4971179;28;9173;-69
2022/01/22 05:49:55;;;;;;;;;1.00;1.00;;;;;15.80;52.96;103418.84;4972238;28;9256;-69
2022/01/22 05:52:29;;;;;;;;;0.00;0.00;;;;;15.81;52.97;103425.91;4971645;28;8783;-69
2022/01/22 06:00:36;;;;;;;;;0.00;0.00;;;;;15.82;53.08;103429.44;4971002;28;9161;-70
2022/01/22 06:03:01;;;;;;;;;0.33;0.33;;;;;15.81;52.99;103433.81;4972060;28;9952;-69
2022/01/22 06:05:26;;;;;;;;;0.00;0.00;;;;;15.79;52.93;103440.72;4971730;28;8782;-70
2022/01/22 06:07:52;;;;;;;;;0.67;0.67;;;;;15.81;53.01;103439.09;4970961;28;8811;-70
2022/01/22 06:10:18;;;;;;;;;1.00;0.00;;;;;15.81;53.15;103439.09;4971610;28;8888;-69
2022/01/22 06:12:58;;;;;;;;;0.00;0.00;;;;;15.80;52.92;103446.91;4971937;28;8762;-69
2022/01/22 06:15:24;;;;;;;;;0.00;0.00;;;;;15.79;52.91;103446.00;4970972;28;9660;-71
2022/01/22 06:17:49;;;;;;;;;0.00;0.00;;;;;15.81;52.97;103452.25;4973888;28;9362;-69
2022/01/22 06:20:15;;;;;;;;;0.00;0.00;;;;;15.81;52.89;103448.72;4975290;28;8783;-70
2022/01/22 06:22:41;;;;;;;;;1.00;0.67;;;;;15.84;52.94;103451.47;4974651;28;8794;-69
2022/01/22 06:25:07;;;;;;;;;0.00;0.00;;;;;15.81;53.09;103462.78;4975172;28;8857;-70
2022/01/22 06:27:33;;;;;;;;;0.00;0.00;;;;;15.82;52.93;103461.94;4975054;28;9423;-70
2022/01/22 06:29:58;;;;;;;;;0.67;0.00;;;;;15.81;52.94;103459.25;4974437;28;9113;-69
2022/01/22 06:32:26;;;;;;;;;0.33;0.33;;;;;15.83;53.01;103465.47;4974729;28;8798;-69
2022/01/22 06:34:52;;;;;;;;;1.67;1.00;;;;;15.81;52.95;103465.41;4974884;28;8802;-69
2022/01/22 06:37:17;;;;;;;;;1.00;1.00;;;;;15.81;52.88;103464.53;4974122;28;9223;-69
2022/01/22 06:42:26;;;;;;;;;1.00;0.00;;;;;15.79;52.98;103464.44;4973866;28;8762;-69
2022/01/22 06:44:52;;;;;;;;;0.00;0.00;;;;;15.81;52.91;103475.06;4975007;28;9335;-70
2022/01/22 06:47:17;;;;;;;;;0.00;0.00;;;;;15.84;52.74;103475.19;4974593;28;8804;-70
2022/01/22 06:49:42;;;;;;;;;1.00;1.00;;;;;15.81;52.89;103472.41;4974237;28;8790;-70
2022/01/22 06:52:08;;;;;;;;;1.00;1.00;;;;;15.81;53.03;103468.06;4974426;28;8785;-70
2022/01/22 06:54:33;;;;;;;;;1.33;1.33;;;;;15.83;52.89;103479.53;4974700;28;8854;-70
2022/01/22 06:56:58;;;;;;;;;0.67;0.00;;;;;15.85;52.92;103477.88;4974100;28;8790;-69
2022/01/22 06:59:24;;;;;;;;;0.00;0.00;;;;;15.89;52.76;103481.53;4974512;28;8790;-69
2022/01/22 07:01:54;;;;;;;;;1.00;1.00;;;;;15.90;52.74;103471.06;4974405;28;8856;-71
2022/01/22 07:04:19;;;;;;;;;0.00;0.00;;;;;15.93;52.63;103476.44;4973558;28;8774;-70
2022/01/22 07:06:45;;;;;;;;;0.33;0.00;;;;;15.93;52.82;103472.94;4974599;28;9421;-71
2022/01/22 07:09:10;;;;;;;;;0.00;0.00;;;;;15.97;52.80;103479.22;4974371;28;8790;-69
2022/01/22 07:11:35;;;;;;;;;1.00;0.00;;;;;15.97;52.67;103482.78;4973962;28;8856;-69
2022/01/22 07:14:00;;;;;;;;;0.00;0.00;;;;;15.99;52.93;103490.72;4974291;28;8826;-69
2022/01/22 07:16:26;;;;;;;;;0.00;0.00;;;;;16.01;52.94;103486.44;4974314;28;8841;-69
2022/01/22 07:18:55;;;;;;;;;0.67;0.00;;;;;16.03;53.02;103484.75;4973691;28;8782;-70
2022/01/22 07:21:21;;;;;;;;;1.00;0.00;;;;;16.05;53.01;103483.97;4973786;28;8786;-70
2022/01/22 07:26:13;;;;;;;;;0.00;0.00;;;;;16.06;52.85;103479.59;4973461;28;9260;-70
2022/01/22 07:28:39;;;;;;;;;1.33;0.33;;;;;16.04;53.28;103471.66;4973017;28;9280;-69
2022/01/22 07:31:05;;;;;;;;;0.00;0.00;;;;;16.05;53.09;103476.06;4973599;28;8837;-70
2022/01/22 07:33:30;;;;;;;;;0.00;0.00;;;;;16.05;53.14;103476.06;4973425;28;9511;-70
2022/01/22 07:35:55;;;;;;;;;1.00;0.00;;;;;16.06;53.07;103477.88;4973700;28;11389;-70
2022/01/22 07:38:21;;;;;;;;;1.00;1.00;;;;;16.06;53.26;103469.06;4973681;28;8794;-70
2022/01/22 07:40:46;;;;;;;;;0.00;0.00;;;;;16.06;53.31;103475.22;4973226;28;8804;-70
2022/01/22 07:43:14;;;;;;;;;2.00;0.00;;;;;16.07;53.42;103470.84;4973650;28;8848;-70
2022/01/22 07:45:39;;;;;;;;;1.00;0.00;;;;;16.08;53.30;103472.66;4973661;28;8963;-69
2022/01/22 07:48:05;;;;;;;;;0.00;0.00;;;;;16.09;53.79;103471.81;4972670;28;9185;-73
2022/01/22 07:50:30;;;;;;;;;1.00;1.00;;;;;16.06;53.42;103463.78;4972188;28;8821;-70
2022/01/22 07:52:57;;;;;;;;;0.00;0.00;;;;;16.08;53.54;103467.41;4972153;28;8817;-69
2022/01/22 07:55:22;;;;;;;;;2.00;1.00;;;;;16.06;53.50;103466.41;4971435;28;9609;-68
2022/01/22 07:57:48;;;;;;;;;1.00;1.00;;;;;16.07;53.64;103466.50;4972708;28;9356;-70
2022/01/22 08:00:16;;;;;;;;;0.00;0.00;;;;;16.07;53.72;103466.50;4972114;28;8802;-69
2022/01/22 08:02:42;;;;;;;;;0.00;0.00;;;;;16.06;53.57;103469.06;4972399;28;8853;-70
2022/01/22 08:05:08;;;;;;;;;1.00;1.00;;;;;16.07;53.62;103457.69;4971209;28;9233;-70
2022/01/22 08:07:33;;;;;;;;;0.00;0.00;;;;;16.05;53.77;103461.97;4972104;28;9396;-70
2022/01/22 08:09:58;;;;;;;;;0.00;0.00;;;;;16.06;53.49;103459.41;4972699;28;8921;-69
2022/01/22 08:12:24;;;;;;;;;0.00;0.00;;;;;16.05;53.50;103454.97;4972437;28;8832;-69
2022/01/22 08:14:49;;;;;;;;;0.00;0.00;;;;;16.06;53.59;103464.69;4972137;28;8835;-70
2022/01/22 08:17:17;;;;;;;;;0.00;0.00;;;;;16.06;53.62;103455.88;4970694;28;8816;-69
2022/01/22 08:19:43;;;;;;;;;0.00;0.00;;;;;16.07;53.54;103460.31;4972053;28;8929;-70
2022/01/22 08:22:08;;;;;;;;;0.00;0.00;;;;;16.05;53.66;103456.69;4970633;28;9298;-69
2022/01/22 08:24:34;;;;;;;;;1.00;0.00;;;;;16.05;53.63;103465.50;4972140;28;8844;-69
2022/01/22 08:27:15;;;;;;;;;1.00;1.00;;;;;16.07;53.75;103462.97;4971714;28;8794;-69
2022/01/22 08:29:41;;;;;;;;;0.00;0.00;;;;;16.05;53.78;103465.50;4971415;28;8822;-69
2022/01/22 08:37:26;;;;;;;;;1.00;1.00;;;;;16.05;53.73;103472.50;4965864;28;9486;-69
2022/01/22 08:39:51;;;;;;;;;0.00;0.00;;;;;16.01;53.64;103460.09;4972443;28;9319;-70
2022/01/22 08:42:17;;;;;;;;;1.67;0.67;;;;;16.05;53.80;103468.16;4971074;28;9107;-70
2022/01/22 08:44:42;;;;;;;;;1.00;1.00;;;;;16.05;53.64;103478.69;4971895;28;8914;-70
2022/01/22 08:47:08;;;;;;;;;0.00;0.00;;;;;16.04;53.83;103481.28;4969616;28;8895;-69
2022/01/22 08:49:33;;;;;;;;;1.75;1.00;;;;;16.10;55.42;103485.06;4972250;28;8807;-70
2022/01/22 08:52:00;;;;;;;;;1.00;0.00;;;;;16.19;55.45;103490.72;4972474;28;8783;-71
2022/01/22 08:54:25;;;;;;;;;1.00;1.00;;;;;16.25;54.48;103495.31;4972240;28;8818;-70
2022/01/22 08:56:51;;;;;;;;;2.00;1.75;;;;;16.33;57.16;103486.91;4971950;28;9404;-69
2022/01/22 08:59:16;;;;;;;;;6.00;5.00;;;;;16.44;58.81;103489.97;4971829;28;8813;-70
2022/01/22 09:01:43;;;;;;;;;4.75;3.00;;;;;16.55;57.98;103483.38;4972474;28;8791;-71
2022/01/22 09:04:08;;;;;;;;;6.00;4.75;;;;;16.68;60.76;103490.06;4971241;28;8795;-69
2022/01/22 09:06:34;;;;;;;;;4.00;3.50;;;;;16.83;62.00;103483.59;4972340;28;9583;-71
2022/01/22 09:09:09;;;;;;;;;4.00;3.00;;;;;16.87;63.57;103482.88;4972560;28;8782;-71
2022/01/22 09:11:35;;;;;;;;;5.75;3.75;;;;;16.90;62.94;103490.03;4971638;28;8938;-71
2022/01/22 09:14:03;;;;;;;;;5.00;3.75;;;;;16.89;63.55;103483.88;4972215;28;9380;-71
2022/01/22 09:16:29;;;;;;;;;3.33;3.33;;;;;16.90;64.12;103487.41;4972488;28;9554;-70
2022/01/22 09:18:55;;;;;;;;;5.75;4.75;;;;;16.89;63.69;103478.59;4971616;28;9291;-71
2022/01/22 09:21:20;;;;;;;;;3.25;3.25;;;;;17.07;66.85;103491.56;4971714;28;9538;-75
2022/01/22 09:23:45;;;;;;;;;7.50;7.00;;;;;16.96;68.07;103494.63;4972069;28;8795;-68
2022/01/22 09:26:11;;;;;;;;;9.75;7.25;;;;;16.87;67.84;103501.34;4971236;28;8779;-77
2022/01/22 09:28:37;;;;;;;;;7.25;5.25;;;;;16.91;68.33;103507.66;4971820;28;8849;-71
2022/01/22 09:31:02;;;;;;;;;7.50;4.75;;;;;16.89;66.76;103506.72;4972242;28;8822;-70
2022/01/22 09:33:28;;;;;;;;;7.75;5.75;;;;;16.73;67.29;103520.13;4971138;28;9661;-71
2022/01/22 09:35:54;;;;;;;;;4.00;2.50;;;;;16.68;67.70;103516.44;4970899;28;8854;-70
2022/01/22 09:38:19;;;;;;;;;5.00;3.25;;;;;16.60;67.33;103521.41;4969762;28;8799;-69
2022/01/22 09:40:47;;;;;;;;;6.00;4.00;;;;;16.55;66.79;103525.56;4970960;28;8824;-69
2022/01/22 09:43:13;;;;;;;;;3.50;3.25;;;;;16.53;66.80;103532.53;4970783;28;8796;-68
2022/01/22 09:45:38;;;;;;;;;3.75;3.00;;;;;16.53;66.50;103536.91;4970298;28;9477;-70
2022/01/22 09:48:04;;;;;;;;;3.75;3.75;;;;;16.51;66.44;103528.00;4970602;28;8848;-68
2022/01/22 09:50:30;;;;;;;;;5.50;2.00;;;;;16.49;66.69;103530.59;4967847;28;8832;-70
2022/01/22 09:52:56;;;;;;;;;4.75;4.75;;;;;16.49;66.33;103533.25;4972940;28;8816;-69
2022/01/22 09:55:22;;;;;;;;;8.00;5.50;;;;;16.48;65.95;103526.16;4974299;28;9576;-71
2022/01/22 09:57:47;;;;;;;;;4.25;4.25;;;;;16.48;65.88;103531.44;4973560;28;8836;-71
2022/01/22 10:00:15;;;;;;;;;4.33;4.00;;;;;16.50;65.65;103536.75;4973804;28;8813;-70
2022/01/22 10:02:42;;;;;;;;;4.25;3.75;;;;;16.49;64.95;103543.78;4975138;28;9534;-70
2022/01/22 10:05:25;;;;;;;;;5.00;5.00;;;;;16.50;64.79;103544.66;4973945;28;9365;-69
2022/01/22 10:07:53;;;;;;;;;3.00;3.00;;;;;16.52;64.79;103536.00;4972831;28;9609;-70
2022/01/22 10:10:21;;;;;;;;;3.00;2.33;;;;;16.54;64.55;103543.94;4974127;28;9507;-70
2022/01/22 10:12:50;;;;;;;;;4.75;4.00;;;;;16.57;64.83;103545.00;4974895;28;9337;-71
2022/01/22 10:15:20;;;;;;;;;2.00;2.00;;;;;16.61;64.20;103549.56;4973718;28;9443;-70
2022/01/22 10:17:47;;;;;;;;;4.00;3.00;;;;;16.66;64.42;103547.13;4973261;28;9497;-71
2022/01/22 10:20:24;;;;;;;;;3.75;2.00;;;;;16.67;63.94;103560.38;4973962;28;9508;-69
2022/01/22 10:22:57;;;;;;;;;2.50;2.50;;;;;16.68;63.93;103559.56;4974292;28;9511;-70
2022/01/22 10:25:33;;;;;;;;;3.00;2.50;;;;;16.72;63.35;103564.09;4974347;28;9502;-69
2022/01/22 10:28:08;;;;;;;;;3.00;3.00;;;;;16.74;62.85;103554.50;4972127;28;9474;-70
2022/01/22 10:30:40;;;;;;;;;3.00;2.00;;;;;16.75;62.07;103551.03;4974566;28;9199;-70
2022/01/22 10:35:49;;;;;;;;;3.00;2.00;;;;;16.77;61.29;103541.44;4973546;28;9406;-70
2022/01/22 10:38:17;;;;;;;;;2.67;2.67;;;;;16.76;61.39;103552.81;4973368;28;9309;-69
2022/01/22 10:40:44;;;;;;;;;3.00;2.75;;;;;16.78;61.47;103545.88;4973899;28;8928;-71
2022/01/22 10:43:21;;;;;;;;;3.50;2.50;;;;;16.74;60.99;103557.16;4973042;28;9487;-70
2022/01/22 10:46:13;;;;;;;;;4.00;3.00;;;;;16.71;61.50;103546.47;4974135;28;9504;-71
2022/01/22 10:48:43;;;;;;;;;3.25;3.00;;;;;16.72;61.28;103548.25;4972921;28;9452;-70
2022/01/22 10:51:11;;;;;;;;;3.75;2.75;;;;;16.69;60.81;103553.41;4974078;28;9465;-70
2022/01/22 10:53:58;;;;;;;;;3.75;2.00;;;;;16.69;60.97;103549.88;4974323;28;9601;-70
2022/01/22 10:56:25;;;;;;;;;3.00;3.00;;;;;16.66;60.69;103553.31;4971907;28;9500;-70
2022/01/22 10:58:55;;;;;;;;;3.00;2.75;;;;;16.67;60.95;103548.94;4956654;28;10326;-70
2022/01/22 11:01:22;;;;;;;;;1.75;1.75;;;;;16.64;60.65;103552.34;4973546;28;9452;-69
2022/01/22 11:04:01;;;;;;;;;3.75;2.00;;;;;16.59;60.37;103550.34;4972946;28;9534;-70
2022/01/22 11:06:27;;;;;;;;;3.75;3.75;;;;;16.61;60.33;103549.56;4972239;28;9517;-68
2022/01/22 11:08:55;;;;;;;;;3.50;2.50;;;;;16.54;60.31;103536.03;4973848;28;9487;-72
2022/01/22 11:11:22;;;;;;;;;2.00;2.00;;;;;16.63;60.12;103539.09;4971863;28;10832;-69
2022/01/22 11:13:47;;;;;;;;;3.00;3.00;;;;;16.65;60.19;103550.59;4973422;28;9472;-71
2022/01/22 11:16:15;;;;;;;;;2.50;2.50;;;;;16.57;60.14;103552.91;4972276;28;10173;-70
2022/01/22 11:18:43;;;;;;;;;5.00;3.75;;;;;16.57;60.22;103554.69;4972939;28;8812;-71
2022/01/22 11:21:09;;;;;;;;;1.50;1.00;;;;;16.55;60.13;103562.50;4973551;28;9419;-72
2022/01/22 11:23:34;;;;;;;;;2.75;2.75;;;;;16.56;59.85;103564.34;4973670;28;9500;-71
2022/01/22 11:26:02;;;;;;;;;3.25;3.00;;;;;16.52;59.85;103558.84;4971915;28;8835;-69
2022/01/22 11:28:27;;;;;;;;;2.50;2.00;;;;;16.57;59.82;103557.31;4972726;28;8937;-73
2022/01/22 11:30:57;;;;;;;;;3.00;2.00;;;;;16.80;60.59;103551.19;4972842;28;9748;-71
2022/01/22 11:33:24;;;;;;;;;2.00;1.67;;;;;16.71;60.45;103556.13;4970863;28;8846;-74
2022/01/22 11:35:55;;;;;;;;;4.25;2.50;;;;;16.81;62.56;103559.19;4973005;28;9466;-72
2022/01/22 11:38:51;;;;;;;;;3.25;3.25;;;;;16.76;63.10;103575.66;4972303;28;9378;-72
2022/01/22 11:41:21;;;;;;;;;4.00;2.25;;;;;16.50;63.36;103561.38;4966273;28;9511;-73
2022/01/22 11:44:23;;;;;;;;;3.25;2.50;;;;;16.33;63.19;103560.72;4972891;28;9547;-72
2022/01/22 11:46:58;;;;;;;;;3.00;3.00;;;;;16.31;65.06;103570.28;4960940;28;9444;-71
2022/01/22 11:49:27;;;;;;;;;1.00;0.00;;;;;16.29;63.97;103560.53;4978476;28;10618;-71
2022/01/22 11:52:14;;;;;;;;;3.00;3.00;;;;;16.26;64.42;103563.94;4980754;28;9425;-73
2022/01/22 11:55:00;;;;;;;;;3.75;3.00;;;;;16.25;64.65;103559.50;4972715;28;9513;-72
2022/01/22 11:57:29;;;;;;;;;2.75;2.75;;;;;16.27;64.91;103549.03;4971215;28;9538;-73
2022/01/22 12:00:16;;;;;;;;;3.00;2.00;;;;;16.23;63.84;103536.56;4972113;28;9573;-72
2022/01/22 12:02:42;;;;;;;;;5.00;4.00;;;;;16.28;64.98;103550.81;4972197;28;9428;-72
2022/01/22 12:05:07;;;;;;;;;2.75;2.75;;;;;16.27;64.56;103551.66;4971901;28;9549;-74
2022/01/22 12:07:35;;;;;;;;;3.00;3.00;;;;;16.29;64.51;103553.53;4971485;28;8782;-73
2022/01/22 12:10:35;;;;;;;;;2.00;2.00;;;;;16.25;63.66;103554.22;4973709;28;8778;-74
2022/01/22 12:16:11;;;;;;;;;2.50;2.50;;;;;16.25;64.13;103548.03;4972511;28;9549;-74
2022/01/22 12:18:43;;;;;;;;;2.00;2.00;;;;;16.22;65.33;103538.28;4973257;28;10183;-73
2022/01/22 12:23:55;;;;;;;;;3.75;2.00;;;;;16.23;65.26;103533.91;4971402;28;9365;-73
2022/01/22 12:26:48;;;;;;;;;4.00;4.00;;;;;16.22;65.19;103535.66;4971283;28;9590;-72
2022/01/22 12:29:36;;;;;;;;;3.00;3.00;;;;;16.24;64.66;103538.34;4970930;28;9601;-73
2022/01/22 12:32:13;;;;;;;;;3.00;2.75;;;;;16.23;64.33;103529.53;4973940;28;10279;-71
2022/01/22 12:34:59;;;;;;;;;2.75;2.75;;;;;16.24;64.51;103539.22;4976257;28;9600;-72
2022/01/22 12:37:26;;;;;;;;;1.00;1.00;;;;;16.25;64.07;103542.78;4971346;28;9554;-73
2022/01/22 12:39:55;;;;;;;;;4.00;3.00;;;;;16.24;64.75;103539.22;4971387;28;9408;-72
2022/01/22 12:42:34;;;;;;;;;2.75;2.75;;;;;16.23;64.01;103547.09;4970499;28;9616;-72
2022/01/22 12:45:02;;;;;;;;;3.75;3.75;;;;;16.23;64.74;103545.34;4971925;28;9562;-73
2022/01/22 12:47:28;;;;;;;;;4.00;3.00;;;;;16.23;63.67;103547.97;4978167;28;9607;-72
2022/01/22 12:50:03;;;;;;;;;3.00;3.00;;;;;16.21;64.69;103543.47;4971348;28;9682;-72
2022/01/22 12:52:28;;;;;;;;;3.00;3.00;;;;;16.24;65.02;103552.41;4979870;28;9422;-72
2022/01/22 12:54:59;;;;;;;;;3.75;3.50;;;;;16.24;64.70;103547.16;4979900;28;9518;-72
2022/01/22 12:57:27;;;;;;;;;3.00;3.00;;;;;16.22;64.12;103543.56;4983956;28;8958;-72
2022/01/22 13:00:12;;;;;;;;;2.00;2.00;;;;;16.26;64.66;103536.69;4982289;28;9412;-73
2022/01/22 13:02:40;;;;;;;;;3.50;2.25;;;;;16.31;65.20;103543.00;4971044;28;9504;-72
2022/01/22 13:05:08;;;;;;;;;5.50;3.50;;;;;16.31;64.59;103546.56;4971119;28;9528;-73
2022/01/22 13:07:37;;;;;;;;;8.00;4.50;;;;;16.36;65.02;103545.03;4970649;28;9626;-72